Terminal Aerodrome Forecast
Issued by NWS Portland, OR

Home | Current Version | Previous Version | Text Only | Print | Product List | Glossary On
Versions: 1 2 3 4 5 6 7 8 9 10 11 12 13 14 15 16 17 18 19 20 21
000
FTUS46 KPQR 110555 CCA
TAFHIO
TAF COR
KHIO 110555Z 1106/1206 20007KT P6SM -SHRA SCT025 BKN035
     FM111400 20005KT 5SM -SHRA BR SCT015 BKN025 BKN035
     FM111900 21006KT P6SM -SHRA SCT025 BKN035=

USA.gov is the U.S. government's official web portal to all federal, state and local government web resources and services.